Terminal Aerodrome Forecast
Issued by NWS

Home | Current Version | Previous Version | Graphics & Text | Print | Product List | Glossary On
Versions: 1 2 3 4 5 6 7 8 9 10 11 12 13 14 15 16 17 18 19 20 21 22 23 24 25 26 27 28 29 30 31 32 33 34 35 36 37 38 39 40 41 42 43 44 45 46 47 48 49 50
000
FTUS43 KLOT 311132
TAFGYY
TAF
KGYY 311132Z 3112/0112 36018G28KT P6SM OVC007
      TEMPO 3112/3116 2SM -DZ BR OVC005
     FM311600 01018G28KT P6SM BKN012 OVC020
     FM312200 02015G22KT P6SM BKN025
     FM010100 03011KT P6SM SCT030
     FM010600 03008KT P6SM FEW250=

USA.gov is the U.S. government's official web portal to all federal, state and local government web resources and services.